sensor_id;sensor_type;location;lat;lon;timestamp;P1;durP1;ratioP1;P2;durP2;ratioP2
23802;SDS011;12082;51.786;6.018;2023-08-24T00:02:01;100.67;;;94.67;;
23802;SDS011;12082;51.786;6.018;2023-08-24T00:04:27;95.67;;;90.70;;
23802;SDS011;12082;51.786;6.018;2023-08-24T00:06:53;102.80;;;97.23;;
23802;SDS011;12082;51.786;6.018;2023-08-24T00:09:19;104.70;;;99.00;;
23802;SDS011;12082;51.786;6.018;2023-08-24T00:11:45;100.17;;;95.03;;
23802;SDS011;12082;51.786;6.018;2023-08-24T00:14:10;94.40;;;88.80;;
23802;SDS011;12082;51.786;6.018;2023-08-24T00:16:36;107.07;;;101.17;;
23802;SDS011;12082;51.786;6.018;2023-08-24T00:19:02;108.37;;;102.57;;
23802;SDS011;12082;51.786;6.018;2023-08-24T00:21:27;103.30;;;97.67;;
23802;SDS011;12082;51.786;6.018;2023-08-24T00:23:54;98.67;;;93.47;;
23802;SDS011;12082;51.786;6.018;2023-08-24T00:26:19;104.80;;;98.93;;
23802;SDS011;12082;51.786;6.018;2023-08-24T00:28:45;105.20;;;99.50;;
23802;SDS011;12082;51.786;6.018;2023-08-24T00:31:11;99.30;;;94.23;;
23802;SDS011;12082;51.786;6.018;2023-08-24T00:33:36;106.90;;;100.87;;
23802;SDS011;12082;51.786;6.018;2023-08-24T00:36:02;102.00;;;96.63;;
23802;SDS011;12082;51.786;6.018;2023-08-24T00:38:30;103.43;;;97.70;;
23802;SDS011;12082;51.786;6.018;2023-08-24T00:40:56;104.57;;;98.77;;
23802;SDS011;12082;51.786;6.018;2023-08-24T00:43:23;105.47;;;99.80;;
23802;SDS011;12082;51.786;6.018;2023-08-24T00:45:53;103.97;;;98.40;;
23802;SDS011;12082;51.786;6.018;2023-08-24T00:48:23;100.80;;;95.43;;
23802;SDS011;12082;51.786;6.018;2023-08-24T00:50:53;105.00;;;99.33;;
23802;SDS011;12082;51.786;6.018;2023-08-24T00:53:29;100.77;;;95.07;;
23802;SDS011;12082;51.786;6.018;2023-08-24T00:55:56;103.13;;;97.73;;
23802;SDS011;12082;51.786;6.018;2023-08-24T00:58:21;98.63;;;93.13;;
23802;SDS011;12082;51.786;6.018;2023-08-24T01:00:48;90.50;;;85.17;;
23802;SDS011;12082;51.786;6.018;2023-08-24T01:03:15;87.57;;;82.90;;
23802;SDS011;12082;51.786;6.018;2023-08-24T01:05:41;94.67;;;89.13;;
23802;SDS011;12082;51.786;6.018;2023-08-24T01:08:08;92.23;;;87.00;;
23802;SDS011;12082;51.786;6.018;2023-08-24T01:10:48;92.93;;;87.27;;
23802;SDS011;12082;51.786;6.018;2023-08-24T01:13:21;92.17;;;87.00;;
23802;SDS011;12082;51.786;6.018;2023-08-24T01:16:12;92.20;;;87.03;;
23802;SDS011;12082;51.786;6.018;2023-08-24T01:18:41;91.83;;;86.43;;
23802;SDS011;12082;51.786;6.018;2023-08-24T01:21:08;84.87;;;80.20;;
23802;SDS011;12082;51.786;6.018;2023-08-24T01:23:36;90.33;;;85.20;;
23802;SDS011;12082;51.786;6.018;2023-08-24T01:26:12;85.20;;;80.43;;
23802;SDS011;12082;51.786;6.018;2023-08-24T01:28:40;91.87;;;86.70;;
23802;SDS011;12082;51.786;6.018;2023-08-24T01:31:06;85.53;;;80.33;;
23802;SDS011;12082;51.786;6.018;2023-08-24T01:33:33;90.07;;;84.73;;
23802;SDS011;12082;51.786;6.018;2023-08-24T01:35:59;84.27;;;79.57;;
23802;SDS011;12082;51.786;6.018;2023-08-24T01:38:24;91.07;;;86.03;;
23802;SDS011;12082;51.786;6.018;2023-08-24T01:43:39;85.77;;;81.07;;
23802;SDS011;12082;51.786;6.018;2023-08-24T01:46:07;88.30;;;83.30;;
23802;SDS011;12082;51.786;6.018;2023-08-24T01:48:33;90.83;;;85.57;;
23802;SDS011;12082;51.786;6.018;2023-08-24T01:51:00;90.60;;;85.40;;
23802;SDS011;12082;51.786;6.018;2023-08-24T01:53:30;91.90;;;86.67;;
23802;SDS011;12082;51.786;6.018;2023-08-24T01:55:56;87.87;;;82.50;;
23802;SDS011;12082;51.786;6.018;2023-08-24T01:58:22;88.83;;;83.50;;
23802;SDS011;12082;51.786;6.018;2023-08-24T02:00:47;92.30;;;86.93;;
23802;SDS011;12082;51.786;6.018;2023-08-24T02:03:13;90.27;;;85.00;;
23802;SDS011;12082;51.786;6.018;2023-08-24T02:05:39;89.00;;;83.80;;
23802;SDS011;12082;51.786;6.018;2023-08-24T02:08:04;94.90;;;89.40;;
23802;SDS011;12082;51.786;6.018;2023-08-24T02:10:30;94.77;;;89.10;;
23802;SDS011;12082;51.786;6.018;2023-08-24T02:12:56;94.63;;;89.17;;
23802;SDS011;12082;51.786;6.018;2023-08-24T02:15:21;88.43;;;83.37;;
23802;SDS011;12082;51.786;6.018;2023-08-24T02:17:47;88.73;;;83.63;;
23802;SDS011;12082;51.786;6.018;2023-08-24T02:20:12;90.40;;;85.37;;
23802;SDS011;12082;51.786;6.018;2023-08-24T02:22:39;88.43;;;83.13;;
23802;SDS011;12082;51.786;6.018;2023-08-24T02:25:05;96.13;;;90.50;;
23802;SDS011;12082;51.786;6.018;2023-08-24T02:27:31;89.53;;;84.43;;
23802;SDS011;12082;51.786;6.018;2023-08-24T02:29:57;93.73;;;88.13;;
23802;SDS011;12082;51.786;6.018;2023-08-24T02:32:23;85.73;;;80.73;;
23802;SDS011;12082;51.786;6.018;2023-08-24T02:34:48;91.80;;;86.37;;
23802;SDS011;12082;51.786;6.018;2023-08-24T02:37:14;94.07;;;88.83;;
23802;SDS011;12082;51.786;6.018;2023-08-24T02:39:39;91.47;;;86.33;;
23802;SDS011;12082;51.786;6.018;2023-08-24T02:42:05;93.23;;;87.63;;
23802;SDS011;12082;51.786;6.018;2023-08-24T02:44:31;90.73;;;85.60;;
23802;SDS011;12082;51.786;6.018;2023-08-24T02:46:56;88.27;;;83.23;;
23802;SDS011;12082;51.786;6.018;2023-08-24T02:49:22;89.63;;;84.53;;
23802;SDS011;12082;51.786;6.018;2023-08-24T02:51:48;88.90;;;84.23;;
23802;SDS011;12082;51.786;6.018;2023-08-24T02:54:13;93.90;;;88.63;;
23802;SDS011;12082;51.786;6.018;2023-08-24T02:56:39;88.30;;;83.20;;
23802;SDS011;12082;51.786;6.018;2023-08-24T02:59:04;88.23;;;83.30;;
23802;SDS011;12082;51.786;6.018;2023-08-24T03:01:30;94.07;;;88.67;;
23802;SDS011;12082;51.786;6.018;2023-08-24T03:03:55;91.57;;;86.47;;
23802;SDS011;12082;51.786;6.018;2023-08-24T03:06:21;92.50;;;87.37;;
23802;SDS011;12082;51.786;6.018;2023-08-24T03:08:49;94.60;;;88.47;;
23802;SDS011;12082;51.786;6.018;2023-08-24T03:11:14;86.40;;;81.07;;
23802;SDS011;12082;51.786;6.018;2023-08-24T03:13:40;87.17;;;82.30;;
23802;SDS011;12082;51.786;6.018;2023-08-24T03:16:06;94.20;;;89.00;;
23802;SDS011;12082;51.786;6.018;2023-08-24T03:18:32;86.83;;;81.80;;
23802;SDS011;12082;51.786;6.018;2023-08-24T03:20:58;89.87;;;84.50;;
23802;SDS011;12082;51.786;6.018;2023-08-24T03:23:25;90.50;;;85.03;;
23802;SDS011;12082;51.786;6.018;2023-08-24T03:25:51;92.27;;;87.17;;
23802;SDS011;12082;51.786;6.018;2023-08-24T03:28:17;88.27;;;83.10;;
23802;SDS011;12082;51.786;6.018;2023-08-24T03:30:50;91.17;;;85.20;;
23802;SDS011;12082;51.786;6.018;2023-08-24T03:33:17;92.17;;;85.43;;
23802;SDS011;12082;51.786;6.018;2023-08-24T03:35:44;90.23;;;84.13;;
23802;SDS011;12082;51.786;6.018;2023-08-24T03:38:09;90.43;;;84.67;;
23802;SDS011;12082;51.786;6.018;2023-08-24T03:40:35;92.10;;;86.07;;
23802;SDS011;12082;51.786;6.018;2023-08-24T03:43:01;91.33;;;85.67;;
23802;SDS011;12082;51.786;6.018;2023-08-24T03:45:27;88.73;;;83.00;;
23802;SDS011;12082;51.786;6.018;2023-08-24T03:47:53;86.20;;;80.23;;
23802;SDS011;12082;51.786;6.018;2023-08-24T03:50:19;90.97;;;85.43;;
23802;SDS011;12082;51.786;6.018;2023-08-24T03:52:44;90.83;;;85.23;;
23802;SDS011;12082;51.786;6.018;2023-08-24T03:55:10;94.00;;;87.80;;
23802;SDS011;12082;51.786;6.018;2023-08-24T03:57:35;91.60;;;85.27;;
23802;SDS011;12082;51.786;6.018;2023-08-24T04:00:03;91.13;;;85.00;;
23802;SDS011;12082;51.786;6.018;2023-08-24T04:02:32;89.53;;;84.03;;
23802;SDS011;12082;51.786;6.018;2023-08-24T04:04:57;88.13;;;82.90;;
23802;SDS011;12082;51.786;6.018;2023-08-24T04:07:23;89.70;;;84.27;;
23802;SDS011;12082;51.786;6.018;2023-08-24T04:09:48;88.33;;;82.30;;
23802;SDS011;12082;51.786;6.018;2023-08-24T04:12:14;94.83;;;88.73;;
23802;SDS011;12082;51.786;6.018;2023-08-24T04:14:39;93.43;;;87.43;;
23802;SDS011;12082;51.786;6.018;2023-08-24T04:17:05;89.17;;;83.67;;
23802;SDS011;12082;51.786;6.018;2023-08-24T04:19:31;96.40;;;89.73;;
23802;SDS011;12082;51.786;6.018;2023-08-24T04:21:56;91.10;;;85.17;;
23802;SDS011;12082;51.786;6.018;2023-08-24T04:24:22;89.87;;;84.27;;
23802;SDS011;12082;51.786;6.018;2023-08-24T04:26:50;98.53;;;92.23;;
23802;SDS011;12082;51.786;6.018;2023-08-24T04:29:16;94.77;;;88.73;;
23802;SDS011;12082;51.786;6.018;2023-08-24T04:31:42;95.47;;;89.23;;
23802;SDS011;12082;51.786;6.018;2023-08-24T04:34:07;95.27;;;89.17;;
23802;SDS011;12082;51.786;6.018;2023-08-24T04:36:34;91.87;;;85.40;;
23802;SDS011;12082;51.786;6.018;2023-08-24T04:38:59;95.70;;;89.47;;
23802;SDS011;12082;51.786;6.018;2023-08-24T04:41:25;98.17;;;90.77;;
23802;SDS011;12082;51.786;6.018;2023-08-24T04:43:52;102.63;;;95.70;;
23802;SDS011;12082;51.786;6.018;2023-08-24T04:46:17;95.10;;;88.37;;
23802;SDS011;12082;51.786;6.018;2023-08-24T04:48:43;96.77;;;90.10;;
23802;SDS011;12082;51.786;6.018;2023-08-24T04:51:08;94.30;;;88.33;;
23802;SDS011;12082;51.786;6.018;2023-08-24T04:53:34;107.50;;;100.07;;
23802;SDS011;12082;51.786;6.018;2023-08-24T04:55:59;101.00;;;94.37;;
23802;SDS011;12082;51.786;6.018;2023-08-24T04:58:25;99.37;;;92.80;;
23802;SDS011;12082;51.786;6.018;2023-08-24T05:00:51;101.10;;;94.30;;
23802;SDS011;12082;51.786;6.018;2023-08-24T05:03:17;97.83;;;90.83;;
23802;SDS011;12082;51.786;6.018;2023-08-24T05:05:42;101.90;;;95.33;;
23802;SDS011;12082;51.786;6.018;2023-08-24T05:08:09;100.50;;;93.80;;
23802;SDS011;12082;51.786;6.018;2023-08-24T05:10:35;106.77;;;99.57;;
23802;SDS011;12082;51.786;6.018;2023-08-24T05:13:01;97.10;;;89.60;;
23802;SDS011;12082;51.786;6.018;2023-08-24T05:15:27;99.23;;;92.20;;
23802;SDS011;12082;51.786;6.018;2023-08-24T05:17:53;98.70;;;91.73;;
23802;SDS011;12082;51.786;6.018;2023-08-24T05:20:21;96.87;;;90.03;;
23802;SDS011;12082;51.786;6.018;2023-08-24T05:22:47;101.33;;;94.33;;
23802;SDS011;12082;51.786;6.018;2023-08-24T05:25:13;96.03;;;88.67;;
23802;SDS011;12082;51.786;6.018;2023-08-24T05:27:38;89.60;;;82.70;;
23802;SDS011;12082;51.786;6.018;2023-08-24T05:30:04;93.87;;;86.77;;
23802;SDS011;12082;51.786;6.018;2023-08-24T05:32:31;97.07;;;89.97;;
23802;SDS011;12082;51.786;6.018;2023-08-24T05:34:56;86.20;;;79.57;;
23802;SDS011;12082;51.786;6.018;2023-08-24T05:37:22;90.07;;;83.03;;
23802;SDS011;12082;51.786;6.018;2023-08-24T05:39:48;92.10;;;85.47;;
23802;SDS011;12082;51.786;6.018;2023-08-24T05:42:13;90.50;;;83.93;;
23802;SDS011;12082;51.786;6.018;2023-08-24T05:44:39;95.17;;;87.63;;
23802;SDS011;12082;51.786;6.018;2023-08-24T05:47:05;76.20;;;70.10;;
23802;SDS011;12082;51.786;6.018;2023-08-24T05:49:33;74.17;;;68.30;;
23802;SDS011;12082;51.786;6.018;2023-08-24T05:51:59;70.87;;;64.53;;
23802;SDS011;12082;51.786;6.018;2023-08-24T05:54:24;69.13;;;63.67;;
23802;SDS011;12082;51.786;6.018;2023-08-24T05:56:50;62.90;;;57.53;;
23802;SDS011;12082;51.786;6.018;2023-08-24T05:59:15;61.97;;;56.90;;
23802;SDS011;12082;51.786;6.018;2023-08-24T06:01:41;61.43;;;55.90;;
23802;SDS011;12082;51.786;6.018;2023-08-24T06:04:07;64.37;;;58.47;;
23802;SDS011;12082;51.786;6.018;2023-08-24T06:06:33;68.00;;;61.37;;
23802;SDS011;12082;51.786;6.018;2023-08-24T06:08:59;66.93;;;60.57;;
23802;SDS011;12082;51.786;6.018;2023-08-24T06:11:25;94.10;;;86.57;;
23802;SDS011;12082;51.786;6.018;2023-08-24T06:13:50;74.73;;;68.67;;
23802;SDS011;12082;51.786;6.018;2023-08-24T06:16:19;58.57;;;53.07;;
23802;SDS011;12082;51.786;6.018;2023-08-24T06:18:45;51.73;;;46.93;;
23802;SDS011;12082;51.786;6.018;2023-08-24T06:21:11;52.40;;;47.47;;
23802;SDS011;12082;51.786;6.018;2023-08-24T06:23:37;53.07;;;48.63;;
23802;SDS011;12082;51.786;6.018;2023-08-24T06:26:03;46.20;;;42.27;;
23802;SDS011;12082;51.786;6.018;2023-08-24T06:28:29;43.17;;;39.77;;
23802;SDS011;12082;51.786;6.018;2023-08-24T06:30:55;55.80;;;51.80;;
23802;SDS011;12082;51.786;6.018;2023-08-24T06:33:21;33.50;;;31.10;;
23802;SDS011;12082;51.786;6.018;2023-08-24T06:35:55;28.40;;;26.27;;
23802;SDS011;12082;51.786;6.018;2023-08-24T06:38:21;40.17;;;37.40;;
23802;SDS011;12082;51.786;6.018;2023-08-24T06:40:46;34.90;;;32.27;;
23802;SDS011;12082;51.786;6.018;2023-08-24T06:43:12;34.77;;;32.03;;
23802;SDS011;12082;51.786;6.018;2023-08-24T06:45:37;41.50;;;38.73;;
23802;SDS011;12082;51.786;6.018;2023-08-24T06:48:03;47.97;;;44.43;;
23802;SDS011;12082;51.786;6.018;2023-08-24T06:50:30;38.53;;;35.73;;
23802;SDS011;12082;51.786;6.018;2023-08-24T06:52:56;39.97;;;37.03;;
23802;SDS011;12082;51.786;6.018;2023-08-24T06:55:21;42.30;;;39.37;;
23802;SDS011;12082;51.786;6.018;2023-08-24T06:57:48;39.63;;;36.90;;
23802;SDS011;12082;51.786;6.018;2023-08-24T07:00:17;38.07;;;35.67;;
23802;SDS011;12082;51.786;6.018;2023-08-24T07:02:44;43.63;;;40.70;;
23802;SDS011;12082;51.786;6.018;2023-08-24T07:05:11;44.57;;;41.60;;
23802;SDS011;12082;51.786;6.018;2023-08-24T07:07:37;46.73;;;43.60;;
23802;SDS011;12082;51.786;6.018;2023-08-24T07:10:03;49.43;;;45.67;;
23802;SDS011;12082;51.786;6.018;2023-08-24T07:12:29;50.17;;;47.10;;
23802;SDS011;12082;51.786;6.018;2023-08-24T07:14:55;60.50;;;56.30;;
23802;SDS011;12082;51.786;6.018;2023-08-24T07:17:20;56.50;;;51.83;;
23802;SDS011;12082;51.786;6.018;2023-08-24T07:19:46;58.23;;;54.43;;
23802;SDS011;12082;51.786;6.018;2023-08-24T07:22:11;49.83;;;46.27;;
23802;SDS011;12082;51.786;6.018;2023-08-24T07:24:37;40.93;;;38.00;;
23802;SDS011;12082;51.786;6.018;2023-08-24T07:27:02;41.53;;;39.07;;
23802;SDS011;12082;51.786;6.018;2023-08-24T07:29:28;46.77;;;43.60;;
23802;SDS011;12082;51.786;6.018;2023-08-24T07:31:54;46.17;;;43.07;;
23802;SDS011;12082;51.786;6.018;2023-08-24T07:34:20;48.40;;;45.27;;
23802;SDS011;12082;51.786;6.018;2023-08-24T07:36:47;46.03;;;43.40;;
23802;SDS011;12082;51.786;6.018;2023-08-24T07:39:13;42.17;;;39.00;;
23802;SDS011;12082;51.786;6.018;2023-08-24T07:41:40;37.50;;;35.23;;
23802;SDS011;12082;51.786;6.018;2023-08-24T07:44:06;39.17;;;36.60;;
23802;SDS011;12082;51.786;6.018;2023-08-24T07:46:32;38.88;;;36.45;;
23802;SDS011;12082;51.786;6.018;2023-08-24T07:48:58;40.38;;;37.70;;
23802;SDS011;12082;51.786;6.018;2023-08-24T07:51:23;38.05;;;35.30;;
23802;SDS011;12082;51.786;6.018;2023-08-24T07:53:49;35.65;;;32.97;;
23802;SDS011;12082;51.786;6.018;2023-08-24T07:56:17;37.30;;;34.97;;
23802;SDS011;12082;51.786;6.018;2023-08-24T07:58:43;35.75;;;33.22;;
23802;SDS011;12082;51.786;6.018;2023-08-24T08:01:09;34.38;;;31.60;;
23802;SDS011;12082;51.786;6.018;2023-08-24T08:03:34;36.05;;;33.15;;
23802;SDS011;12082;51.786;6.018;2023-08-24T08:06:00;34.65;;;32.47;;
23802;SDS011;12082;51.786;6.018;2023-08-24T08:08:26;35.58;;;33.28;;
23802;SDS011;12082;51.786;6.018;2023-08-24T08:10:59;34.80;;;32.45;;
23802;SDS011;12082;51.786;6.018;2023-08-24T08:13:26;32.47;;;30.05;;
23802;SDS011;12082;51.786;6.018;2023-08-24T08:15:52;33.35;;;30.95;;
23802;SDS011;12082;51.786;6.018;2023-08-24T08:18:18;35.42;;;32.97;;
23802;SDS011;12082;51.786;6.018;2023-08-24T08:20:44;34.17;;;31.80;;
23802;SDS011;12082;51.786;6.018;2023-08-24T08:23:09;36.10;;;33.67;;
23802;SDS011;12082;51.786;6.018;2023-08-24T08:25:35;37.20;;;34.92;;
23802;SDS011;12082;51.786;6.018;2023-08-24T08:28:00;36.17;;;33.80;;
23802;SDS011;12082;51.786;6.018;2023-08-24T08:30:26;33.63;;;31.52;;
23802;SDS011;12082;51.786;6.018;2023-08-24T08:32:51;34.65;;;32.38;;
23802;SDS011;12082;51.786;6.018;2023-08-24T08:35:18;35.95;;;33.90;;
23802;SDS011;12082;51.786;6.018;2023-08-24T08:37:44;34.50;;;32.17;;
23802;SDS011;12082;51.786;6.018;2023-08-24T08:40:10;34.90;;;32.75;;
23802;SDS011;12082;51.786;6.018;2023-08-24T08:42:36;36.45;;;33.90;;
23802;SDS011;12082;51.786;6.018;2023-08-24T08:45:02;36.13;;;33.75;;
23802;SDS011;12082;51.786;6.018;2023-08-24T08:47:29;33.55;;;31.02;;
23802;SDS011;12082;51.786;6.018;2023-08-24T08:49:55;33.22;;;31.33;;
23802;SDS011;12082;51.786;6.018;2023-08-24T08:52:21;36.10;;;33.72;;
23802;SDS011;12082;51.786;6.018;2023-08-24T08:54:47;35.53;;;33.33;;
23802;SDS011;12082;51.786;6.018;2023-08-24T08:57:12;36.25;;;33.78;;
23802;SDS011;12082;51.786;6.018;2023-08-24T08:59:40;37.20;;;34.42;;
23802;SDS011;12082;51.786;6.018;2023-08-24T09:02:06;35.97;;;33.63;;
23802;SDS011;12082;51.786;6.018;2023-08-24T09:04:37;36.80;;;34.20;;
23802;SDS011;12082;51.786;6.018;2023-08-24T09:07:04;37.37;;;34.70;;
23802;SDS011;12082;51.786;6.018;2023-08-24T09:09:35;34.93;;;32.40;;
23802;SDS011;12082;51.786;6.018;2023-08-24T09:12:01;35.47;;;33.07;;
23802;SDS011;12082;51.786;6.018;2023-08-24T09:14:30;37.87;;;34.93;;
23802;SDS011;12082;51.786;6.018;2023-08-24T09:16:55;35.80;;;33.00;;
23802;SDS011;12082;51.786;6.018;2023-08-24T09:19:22;38.20;;;35.47;;
23802;SDS011;12082;51.786;6.018;2023-08-24T09:21:56;35.07;;;32.67;;
23802;SDS011;12082;51.786;6.018;2023-08-24T09:24:29;35.77;;;33.17;;
23802;SDS011;12082;51.786;6.018;2023-08-24T09:26:55;34.57;;;32.47;;
23802;SDS011;12082;51.786;6.018;2023-08-24T09:29:21;35.33;;;33.03;;
23802;SDS011;12082;51.786;6.018;2023-08-24T09:31:47;36.60;;;34.30;;
23802;SDS011;12082;51.786;6.018;2023-08-24T09:34:18;36.27;;;33.83;;
23802;SDS011;12082;51.786;6.018;2023-08-24T09:36:45;34.97;;;32.27;;
23802;SDS011;12082;51.786;6.018;2023-08-24T09:39:10;34.33;;;31.80;;
23802;SDS011;12082;51.786;6.018;2023-08-24T09:41:40;37.73;;;35.23;;
23802;SDS011;12082;51.786;6.018;2023-08-24T09:44:08;36.83;;;34.00;;
23802;SDS011;12082;51.786;6.018;2023-08-24T09:46:35;33.90;;;31.80;;
23802;SDS011;12082;51.786;6.018;2023-08-24T09:49:04;35.57;;;33.13;;
23802;SDS011;12082;51.786;6.018;2023-08-24T09:51:30;34.77;;;32.57;;
23802;SDS011;12082;51.786;6.018;2023-08-24T09:53:58;37.33;;;34.07;;
23802;SDS011;12082;51.786;6.018;2023-08-24T09:56:27;34.60;;;32.27;;
23802;SDS011;12082;51.786;6.018;2023-08-24T09:58:54;35.67;;;33.17;;
23802;SDS011;12082;51.786;6.018;2023-08-24T10:01:22;32.33;;;30.27;;
23802;SDS011;12082;51.786;6.018;2023-08-24T10:03:50;34.33;;;31.93;;
23802;SDS011;12082;51.786;6.018;2023-08-24T10:06:23;34.70;;;32.40;;
23802;SDS011;12082;51.786;6.018;2023-08-24T10:08:55;34.83;;;32.73;;
23802;SDS011;12082;51.786;6.018;2023-08-24T10:11:26;35.23;;;32.63;;
23802;SDS011;12082;51.786;6.018;2023-08-24T10:14:13;30.83;;;28.97;;
23802;SDS011;12082;51.786;6.018;2023-08-24T10:16:43;34.83;;;32.53;;
23802;SDS011;12082;51.786;6.018;2023-08-24T10:19:11;33.13;;;30.67;;
23802;SDS011;12082;51.786;6.018;2023-08-24T10:21:38;32.30;;;30.33;;
23802;SDS011;12082;51.786;6.018;2023-08-24T10:24:04;33.90;;;31.37;;
23802;SDS011;12082;51.786;6.018;2023-08-24T10:26:32;34.43;;;32.07;;
23802;SDS011;12082;51.786;6.018;2023-08-24T10:28:59;33.13;;;31.10;;
23802;SDS011;12082;51.786;6.018;2023-08-24T10:31:25;36.40;;;33.97;;
23802;SDS011;12082;51.786;6.018;2023-08-24T10:33:51;34.80;;;32.67;;
23802;SDS011;12082;51.786;6.018;2023-08-24T10:36:19;47.40;;;44.10;;
23802;SDS011;12082;51.786;6.018;2023-08-24T10:38:47;33.47;;;31.27;;
23802;SDS011;12082;51.786;6.018;2023-08-24T10:41:13;36.97;;;34.40;;
23802;SDS011;12082;51.786;6.018;2023-08-24T10:43:39;32.33;;;30.23;;
23802;SDS011;12082;51.786;6.018;2023-08-24T10:46:13;33.60;;;31.63;;
23802;SDS011;12082;51.786;6.018;2023-08-24T10:53:55;34.83;;;32.63;;
23802;SDS011;12082;51.786;6.018;2023-08-24T10:56:20;33.80;;;31.80;;
23802;SDS011;12082;51.786;6.018;2023-08-24T10:58:46;32.70;;;30.30;;
23802;SDS011;12082;51.786;6.018;2023-08-24T11:01:32;35.20;;;32.97;;
23802;SDS011;12082;51.786;6.018;2023-08-24T11:03:58;30.93;;;29.13;;
23802;SDS011;12082;51.786;6.018;2023-08-24T11:06:24;33.17;;;31.23;;
23802;SDS011;12082;51.786;6.018;2023-08-24T11:09:04;33.77;;;31.37;;
23802;SDS011;12082;51.786;6.018;2023-08-24T11:11:38;29.93;;;28.13;;
23802;SDS011;12082;51.786;6.018;2023-08-24T11:14:14;31.33;;;29.27;;
23802;SDS011;12082;51.786;6.018;2023-08-24T11:16:52;32.77;;;30.60;;
23802;SDS011;12082;51.786;6.018;2023-08-24T11:19:19;33.20;;;31.07;;
23802;SDS011;12082;51.786;6.018;2023-08-24T11:21:45;31.27;;;28.80;;
23802;SDS011;12082;51.786;6.018;2023-08-24T11:24:12;34.63;;;31.97;;
23802;SDS011;12082;51.786;6.018;2023-08-24T11:26:39;30.57;;;28.47;;
23802;SDS011;12082;51.786;6.018;2023-08-24T11:29:06;33.60;;;31.40;;
23802;SDS011;12082;51.786;6.018;2023-08-24T11:31:35;34.40;;;31.97;;
23802;SDS011;12082;51.786;6.018;2023-08-24T11:34:02;32.53;;;30.27;;
23802;SDS011;12082;51.786;6.018;2023-08-24T11:36:29;29.33;;;27.20;;
23802;SDS011;12082;51.786;6.018;2023-08-24T11:39:06;31.87;;;30.03;;
23802;SDS011;12082;51.786;6.018;2023-08-24T11:41:31;31.30;;;29.20;;
23802;SDS011;12082;51.786;6.018;2023-08-24T11:44:00;27.77;;;25.47;;
23802;SDS011;12082;51.786;6.018;2023-08-24T11:46:27;29.27;;;27.23;;
23802;SDS011;12082;51.786;6.018;2023-08-24T11:48:54;29.63;;;27.90;;
23802;SDS011;12082;51.786;6.018;2023-08-24T11:51:21;31.07;;;28.43;;
23802;SDS011;12082;51.786;6.018;2023-08-24T11:53:47;27.57;;;25.83;;
23802;SDS011;12082;51.786;6.018;2023-08-24T11:56:14;28.37;;;26.37;;
23802;SDS011;12082;51.786;6.018;2023-08-24T11:58:42;27.97;;;25.90;;
23802;SDS011;12082;51.786;6.018;2023-08-24T12:01:08;29.50;;;27.70;;
23802;SDS011;12082;51.786;6.018;2023-08-24T12:03:38;29.13;;;27.00;;
23802;SDS011;12082;51.786;6.018;2023-08-24T12:06:14;26.97;;;25.37;;
23802;SDS011;12082;51.786;6.018;2023-08-24T12:08:41;32.87;;;29.73;;
23802;SDS011;12082;51.786;6.018;2023-08-24T12:11:11;30.60;;;28.47;;
23802;SDS011;12082;51.786;6.018;2023-08-24T12:13:38;30.53;;;28.57;;
23802;SDS011;12082;51.786;6.018;2023-08-24T12:16:07;28.30;;;26.17;;
23802;SDS011;12082;51.786;6.018;2023-08-24T12:18:35;29.77;;;27.53;;
23802;SDS011;12082;51.786;6.018;2023-08-24T12:21:11;31.50;;;29.53;;
23802;SDS011;12082;51.786;6.018;2023-08-24T12:23:38;30.63;;;28.60;;
23802;SDS011;12082;51.786;6.018;2023-08-24T12:26:03;32.83;;;30.00;;
23802;SDS011;12082;51.786;6.018;2023-08-24T12:28:32;33.27;;;30.67;;
23802;SDS011;12082;51.786;6.018;2023-08-24T12:30:58;35.27;;;32.27;;
23802;SDS011;12082;51.786;6.018;2023-08-24T12:33:28;33.87;;;30.53;;
23802;SDS011;12082;51.786;6.018;2023-08-24T12:35:55;32.00;;;29.73;;
23802;SDS011;12082;51.786;6.018;2023-08-24T12:38:21;31.30;;;29.17;;
23802;SDS011;12082;51.786;6.018;2023-08-24T12:40:47;32.97;;;30.47;;
23802;SDS011;12082;51.786;6.018;2023-08-24T12:43:13;31.07;;;28.70;;
23802;SDS011;12082;51.786;6.018;2023-08-24T12:45:39;29.97;;;27.83;;
23802;SDS011;12082;51.786;6.018;2023-08-24T12:48:05;30.93;;;27.57;;
23802;SDS011;12082;51.786;6.018;2023-08-24T12:50:35;31.47;;;29.37;;
23802;SDS011;12082;51.786;6.018;2023-08-24T12:53:02;30.80;;;28.57;;
23802;SDS011;12082;51.786;6.018;2023-08-24T12:55:31;31.67;;;29.77;;
23802;SDS011;12082;51.786;6.018;2023-08-24T12:57:57;31.53;;;29.63;;
23802;SDS011;12082;51.786;6.018;2023-08-24T13:00:23;27.10;;;25.50;;
23802;SDS011;12082;51.786;6.018;2023-08-24T13:02:49;27.23;;;25.40;;
23802;SDS011;12082;51.786;6.018;2023-08-24T13:05:15;30.60;;;28.50;;
23802;SDS011;12082;51.786;6.018;2023-08-24T13:07:40;28.03;;;26.27;;
23802;SDS011;12082;51.786;6.018;2023-08-24T13:10:06;30.97;;;28.80;;
23802;SDS011;12082;51.786;6.018;2023-08-24T13:12:32;28.10;;;26.33;;
23802;SDS011;12082;51.786;6.018;2023-08-24T13:14:59;26.67;;;24.90;;
23802;SDS011;12082;51.786;6.018;2023-08-24T13:17:25;28.20;;;26.40;;
23802;SDS011;12082;51.786;6.018;2023-08-24T13:19:50;28.00;;;26.17;;
23802;SDS011;12082;51.786;6.018;2023-08-24T13:22:16;31.07;;;28.67;;
23802;SDS011;12082;51.786;6.018;2023-08-24T13:24:41;29.20;;;27.47;;
23802;SDS011;12082;51.786;6.018;2023-08-24T13:27:09;28.37;;;26.47;;
23802;SDS011;12082;51.786;6.018;2023-08-24T13:29:38;31.20;;;29.07;;
23802;SDS011;12082;51.786;6.018;2023-08-24T13:32:05;28.23;;;26.17;;
23802;SDS011;12082;51.786;6.018;2023-08-24T13:34:30;29.30;;;27.17;;
23802;SDS011;12082;51.786;6.018;2023-08-24T13:36:56;29.17;;;26.43;;
23802;SDS011;12082;51.786;6.018;2023-08-24T13:39:23;28.97;;;26.77;;
23802;SDS011;12082;51.786;6.018;2023-08-24T13:41:58;29.57;;;27.30;;
23802;SDS011;12082;51.786;6.018;2023-08-24T13:44:24;29.93;;;27.87;;
23802;SDS011;12082;51.786;6.018;2023-08-24T13:46:50;34.53;;;31.97;;
23802;SDS011;12082;51.786;6.018;2023-08-24T13:49:19;30.57;;;28.47;;
23802;SDS011;12082;51.786;6.018;2023-08-24T13:51:45;32.77;;;30.27;;
23802;SDS011;12082;51.786;6.018;2023-08-24T13:54:18;40.20;;;37.60;;
23802;SDS011;12082;51.786;6.018;2023-08-24T13:56:46;29.97;;;27.77;;
23802;SDS011;12082;51.786;6.018;2023-08-24T13:59:12;31.23;;;28.70;;
23802;SDS011;12082;51.786;6.018;2023-08-24T14:01:39;32.13;;;29.63;;
23802;SDS011;12082;51.786;6.018;2023-08-24T14:04:05;30.17;;;27.93;;
23802;SDS011;12082;51.786;6.018;2023-08-24T14:06:31;35.10;;;32.57;;
23802;SDS011;12082;51.786;6.018;2023-08-24T14:09:04;32.03;;;29.77;;
23802;SDS011;12082;51.786;6.018;2023-08-24T14:11:30;34.17;;;31.70;;
23802;SDS011;12082;51.786;6.018;2023-08-24T14:13:56;32.27;;;29.20;;
23802;SDS011;12082;51.786;6.018;2023-08-24T14:16:22;34.87;;;32.60;;
23802;SDS011;12082;51.786;6.018;2023-08-24T14:18:48;33.00;;;30.53;;
23802;SDS011;12082;51.786;6.018;2023-08-24T14:21:14;33.83;;;31.60;;
23802;SDS011;12082;51.786;6.018;2023-08-24T14:23:41;34.83;;;32.50;;
23802;SDS011;12082;51.786;6.018;2023-08-24T14:26:07;34.37;;;31.80;;
23802;SDS011;12082;51.786;6.018;2023-08-24T14:28:51;34.13;;;31.73;;